Accueil
METAR-TAF:

METAR-TAF

Aéroports :

Aérodrome de Tuléar

Tuléar, Madagascar

latitude: 23-23S, longitude: 043-44E, altitude: 8 m

METAR: absent

Heure: 14:52 (11:52 UTC)

Prévision

Le bulletin a été fait il y a 52 minutes, à 11:00 UTC
Prévision valable du 28 à 12 UTC au 29 à 12 UTC
Vent 12 kt de ouest/sud-ouest
Visibilité 10 km ou plus
Quelques nuages à une hauteur de 2000 ft
Nuages épars à une hauteur de 4000 ft
Evoluant progressivement
du 28 à 15 UTC au 28 à 18 UTC
Vent 8 kt de sud

TAF: FMST 281100Z 2812/2912 24012KT 9999 FEW020 SCT040 BECMG 2815/2818 18008KT

Observations et prévisions météorologiques de plus de 4000 aéroports (messages METAR et TAF).

Les stations disponibles sont représentées par des disques jaunes et rouges sur la carte.

Passer la souris dessus pour voir le nom de la station.

Cliquer dessus pour voir les observations et prévisions météorologiques.

Pour changer de carte: cliquez sur les boutons verts avec une croix noire pour zoomer, sur le bouton vert avec un tiret pour effectuer un zoom arrière, ou sur les flèches vertes pour les cartes adjacentes.


METAR-TAF: